sensor_id;sensor_type;location;lat;lon;timestamp;P1;durP1;ratioP1;P2;durP2;ratioP2
22040;SDS011;11184;52.444;13.578;2022-11-04T00:00:44;19.95;;;11.75;;
22040;SDS011;11184;52.444;13.578;2022-11-04T00:03:28;15.65;;;10.85;;
22040;SDS011;11184;52.444;13.578;2022-11-04T00:06:13;12.00;;;10.55;;
22040;SDS011;11184;52.444;13.578;2022-11-04T00:08:57;13.73;;;11.73;;
22040;SDS011;11184;52.444;13.578;2022-11-04T00:11:42;13.98;;;11.35;;
22040;SDS011;11184;52.444;13.578;2022-11-04T00:15:02;20.20;;;10.88;;
22040;SDS011;11184;52.444;13.578;2022-11-04T00:18:06;18.33;;;10.30;;
22040;SDS011;11184;52.444;13.578;2022-11-04T00:20:50;13.65;;;10.80;;
22040;SDS011;11184;52.444;13.578;2022-11-04T00:23:54;18.77;;;10.50;;
22040;SDS011;11184;52.444;13.578;2022-11-04T00:26:58;13.27;;;11.48;;
22040;SDS011;11184;52.444;13.578;2022-11-04T00:30:02;20.02;;;12.38;;
22040;SDS011;11184;52.444;13.578;2022-11-04T00:32:47;19.65;;;11.07;;
22040;SDS011;11184;52.444;13.578;2022-11-04T00:35:52;18.77;;;11.95;;
22040;SDS011;11184;52.444;13.578;2022-11-04T00:38:37;12.23;;;10.98;;
22040;SDS011;11184;52.444;13.578;2022-11-04T00:41:22;15.02;;;11.20;;
22040;SDS011;11184;52.444;13.578;2022-11-04T00:44:09;13.77;;;11.07;;
22040;SDS011;11184;52.444;13.578;2022-11-04T00:46:54;16.90;;;11.25;;
22040;SDS011;11184;52.444;13.578;2022-11-04T00:49:38;18.20;;;11.35;;
22040;SDS011;11184;52.444;13.578;2022-11-04T00:52:23;19.52;;;11.40;;
22040;SDS011;11184;52.444;13.578;2022-11-04T00:55:08;19.42;;;12.13;;
22040;SDS011;11184;52.444;13.578;2022-11-04T00:57:53;16.02;;;12.20;;
22040;SDS011;11184;52.444;13.578;2022-11-04T01:00:37;15.10;;;11.23;;
22040;SDS011;11184;52.444;13.578;2022-11-04T01:03:23;14.48;;;12.05;;
22040;SDS011;11184;52.444;13.578;2022-11-04T01:06:08;23.75;;;13.30;;
22040;SDS011;11184;52.444;13.578;2022-11-04T01:08:56;18.02;;;12.48;;
22040;SDS011;11184;52.444;13.578;2022-11-04T01:11:41;16.42;;;13.32;;
22040;SDS011;11184;52.444;13.578;2022-11-04T01:14:26;15.55;;;12.63;;
22040;SDS011;11184;52.444;13.578;2022-11-04T01:17:10;15.88;;;13.43;;
22040;SDS011;11184;52.444;13.578;2022-11-04T01:19:55;15.00;;;13.43;;
22040;SDS011;11184;52.444;13.578;2022-11-04T01:22:39;19.60;;;14.13;;
22040;SDS011;11184;52.444;13.578;2022-11-04T01:25:24;20.83;;;13.10;;
22040;SDS011;11184;52.444;13.578;2022-11-04T01:28:09;17.20;;;12.38;;
22040;SDS011;11184;52.444;13.578;2022-11-04T01:30:54;21.05;;;13.60;;
22040;SDS011;11184;52.444;13.578;2022-11-04T01:33:38;19.90;;;14.63;;
22040;SDS011;11184;52.444;13.578;2022-11-04T01:36:23;17.58;;;13.38;;
22040;SDS011;11184;52.444;13.578;2022-11-04T01:39:10;18.15;;;14.00;;
22040;SDS011;11184;52.444;13.578;2022-11-04T01:41:54;17.35;;;13.25;;
22040;SDS011;11184;52.444;13.578;2022-11-04T01:44:53;15.73;;;13.20;;
22040;SDS011;11184;52.444;13.578;2022-11-04T01:47:39;17.27;;;12.68;;
22040;SDS011;11184;52.444;13.578;2022-11-04T01:50:26;17.95;;;12.57;;
22040;SDS011;11184;52.444;13.578;2022-11-04T01:53:13;18.98;;;14.52;;
22040;SDS011;11184;52.444;13.578;2022-11-04T01:56:00;23.80;;;15.25;;
22040;SDS011;11184;52.444;13.578;2022-11-04T01:58:47;21.17;;;13.65;;
22040;SDS011;11184;52.444;13.578;2022-11-04T02:01:33;22.70;;;14.65;;
22040;SDS011;11184;52.444;13.578;2022-11-04T02:04:18;14.43;;;12.32;;
22040;SDS011;11184;52.444;13.578;2022-11-04T02:07:10;14.75;;;13.15;;
22040;SDS011;11184;52.444;13.578;2022-11-04T02:09:55;20.65;;;13.73;;
22040;SDS011;11184;52.444;13.578;2022-11-04T02:12:40;18.73;;;12.07;;
22040;SDS011;11184;52.444;13.578;2022-11-04T02:15:45;16.73;;;13.52;;
22040;SDS011;11184;52.444;13.578;2022-11-04T02:18:38;17.90;;;13.60;;
22040;SDS011;11184;52.444;13.578;2022-11-04T02:24:28;18.85;;;13.50;;
22040;SDS011;11184;52.444;13.578;2022-11-04T02:30:28;17.27;;;13.10;;
22040;SDS011;11184;52.444;13.578;2022-11-04T02:33:18;26.80;;;14.98;;
22040;SDS011;11184;52.444;13.578;2022-11-04T02:36:07;18.90;;;14.07;;
22040;SDS011;11184;52.444;13.578;2022-11-04T02:38:54;18.20;;;12.98;;
22040;SDS011;11184;52.444;13.578;2022-11-04T02:41:41;17.13;;;14.13;;
22040;SDS011;11184;52.444;13.578;2022-11-04T02:44:37;16.70;;;13.45;;
22040;SDS011;11184;52.444;13.578;2022-11-04T02:47:26;17.80;;;13.02;;
22040;SDS011;11184;52.444;13.578;2022-11-04T02:50:20;18.25;;;12.13;;
22040;SDS011;11184;52.444;13.578;2022-11-04T02:53:15;21.10;;;13.73;;
22040;SDS011;11184;52.444;13.578;2022-11-04T02:56:01;16.73;;;13.35;;
22040;SDS011;11184;52.444;13.578;2022-11-04T02:58:53;18.38;;;14.05;;
22040;SDS011;11184;52.444;13.578;2022-11-04T03:01:40;16.88;;;14.07;;
22040;SDS011;11184;52.444;13.578;2022-11-04T03:04:27;16.63;;;13.82;;
22040;SDS011;11184;52.444;13.578;2022-11-04T03:07:14;20.00;;;13.50;;
22040;SDS011;11184;52.444;13.578;2022-11-04T03:10:02;19.27;;;15.13;;
22040;SDS011;11184;52.444;13.578;2022-11-04T03:12:53;17.30;;;11.85;;
22040;SDS011;11184;52.444;13.578;2022-11-04T03:15:41;16.38;;;13.80;;
22040;SDS011;11184;52.444;13.578;2022-11-04T03:18:35;19.08;;;13.05;;
22040;SDS011;11184;52.444;13.578;2022-11-04T03:21:21;18.83;;;14.52;;
22040;SDS011;11184;52.444;13.578;2022-11-04T03:24:07;23.15;;;14.20;;
22040;SDS011;11184;52.444;13.578;2022-11-04T03:26:59;16.60;;;13.80;;
22040;SDS011;11184;52.444;13.578;2022-11-04T03:29:58;19.67;;;15.13;;
22040;SDS011;11184;52.444;13.578;2022-11-04T03:32:45;17.90;;;14.07;;
22040;SDS011;11184;52.444;13.578;2022-11-04T03:35:33;22.85;;;16.48;;
22040;SDS011;11184;52.444;13.578;2022-11-04T03:38:19;20.88;;;14.23;;
22040;SDS011;11184;52.444;13.578;2022-11-04T03:41:06;19.60;;;14.50;;
22040;SDS011;11184;52.444;13.578;2022-11-04T03:43:52;23.60;;;15.75;;
22040;SDS011;11184;52.444;13.578;2022-11-04T03:46:37;18.48;;;15.50;;
22040;SDS011;11184;52.444;13.578;2022-11-04T03:49:22;16.98;;;14.00;;
22040;SDS011;11184;52.444;13.578;2022-11-04T03:52:08;22.67;;;13.95;;
22040;SDS011;11184;52.444;13.578;2022-11-04T03:54:52;29.85;;;14.93;;
22040;SDS011;11184;52.444;13.578;2022-11-04T03:57:43;14.80;;;13.25;;
22040;SDS011;11184;52.444;13.578;2022-11-04T04:00:32;15.77;;;12.63;;
22040;SDS011;11184;52.444;13.578;2022-11-04T04:03:37;20.73;;;14.20;;
22040;SDS011;11184;52.444;13.578;2022-11-04T04:06:25;20.77;;;15.93;;
22040;SDS011;11184;52.444;13.578;2022-11-04T04:09:15;17.75;;;13.93;;
22040;SDS011;11184;52.444;13.578;2022-11-04T04:14:50;30.55;;;15.18;;
22040;SDS011;11184;52.444;13.578;2022-11-04T04:17:36;20.30;;;14.70;;
22040;SDS011;11184;52.444;13.578;2022-11-04T04:20:25;20.80;;;13.30;;
22040;SDS011;11184;52.444;13.578;2022-11-04T04:23:15;21.88;;;15.05;;
22040;SDS011;11184;52.444;13.578;2022-11-04T04:26:20;18.95;;;15.35;;
22040;SDS011;11184;52.444;13.578;2022-11-04T04:29:24;17.88;;;13.90;;
22040;SDS011;11184;52.444;13.578;2022-11-04T04:32:11;21.17;;;13.23;;
22040;SDS011;11184;52.444;13.578;2022-11-04T04:34:56;14.07;;;12.52;;
22040;SDS011;11184;52.444;13.578;2022-11-04T04:38:01;15.48;;;13.88;;
22040;SDS011;11184;52.444;13.578;2022-11-04T04:41:16;21.90;;;12.95;;
22040;SDS011;11184;52.444;13.578;2022-11-04T04:44:24;15.60;;;13.93;;
22040;SDS011;11184;52.444;13.578;2022-11-04T04:47:30;17.02;;;13.27;;
22040;SDS011;11184;52.444;13.578;2022-11-04T04:50:16;18.65;;;13.75;;
22040;SDS011;11184;52.444;13.578;2022-11-04T04:53:02;22.40;;;13.68;;
22040;SDS011;11184;52.444;13.578;2022-11-04T04:55:47;18.73;;;14.10;;
22040;SDS011;11184;52.444;13.578;2022-11-04T04:58:32;20.02;;;14.32;;
22040;SDS011;11184;52.444;13.578;2022-11-04T05:01:16;17.05;;;13.73;;
22040;SDS011;11184;52.444;13.578;2022-11-04T05:04:01;18.40;;;14.63;;
22040;SDS011;11184;52.444;13.578;2022-11-04T05:06:45;21.58;;;14.77;;
22040;SDS011;11184;52.444;13.578;2022-11-04T05:09:30;16.33;;;13.88;;
22040;SDS011;11184;52.444;13.578;2022-11-04T05:12:15;25.20;;;13.93;;
22040;SDS011;11184;52.444;13.578;2022-11-04T05:14:59;20.33;;;14.25;;
22040;SDS011;11184;52.444;13.578;2022-11-04T05:17:44;17.92;;;13.10;;
22040;SDS011;11184;52.444;13.578;2022-11-04T05:20:28;19.83;;;16.02;;
22040;SDS011;11184;52.444;13.578;2022-11-04T05:23:16;14.35;;;12.77;;
22040;SDS011;11184;52.444;13.578;2022-11-04T05:26:01;16.10;;;14.50;;
22040;SDS011;11184;52.444;13.578;2022-11-04T05:28:46;17.25;;;13.48;;
22040;SDS011;11184;52.444;13.578;2022-11-04T05:31:30;15.60;;;12.75;;
22040;SDS011;11184;52.444;13.578;2022-11-04T05:34:15;16.55;;;14.00;;
22040;SDS011;11184;52.444;13.578;2022-11-04T05:37:00;16.42;;;13.40;;
22040;SDS011;11184;52.444;13.578;2022-11-04T05:39:44;18.08;;;13.80;;
22040;SDS011;11184;52.444;13.578;2022-11-04T05:42:29;15.32;;;12.20;;
22040;SDS011;11184;52.444;13.578;2022-11-04T05:45:14;16.73;;;14.95;;
22040;SDS011;11184;52.444;13.578;2022-11-04T05:48:00;21.85;;;14.65;;
22040;SDS011;11184;52.444;13.578;2022-11-04T05:50:45;17.83;;;13.95;;
22040;SDS011;11184;52.444;13.578;2022-11-04T05:53:30;24.38;;;16.15;;
22040;SDS011;11184;52.444;13.578;2022-11-04T05:56:14;16.00;;;14.43;;
22040;SDS011;11184;52.444;13.578;2022-11-04T05:58:59;23.35;;;13.80;;
22040;SDS011;11184;52.444;13.578;2022-11-04T06:01:44;25.35;;;14.20;;
22040;SDS011;11184;52.444;13.578;2022-11-04T06:04:29;14.15;;;12.70;;
22040;SDS011;11184;52.444;13.578;2022-11-04T06:07:13;21.55;;;15.07;;
22040;SDS011;11184;52.444;13.578;2022-11-04T06:09:58;17.00;;;14.00;;
22040;SDS011;11184;52.444;13.578;2022-11-04T06:12:43;18.77;;;14.63;;
22040;SDS011;11184;52.444;13.578;2022-11-04T06:15:27;18.52;;;14.40;;
22040;SDS011;11184;52.444;13.578;2022-11-04T06:18:12;19.00;;;14.13;;
22040;SDS011;11184;52.444;13.578;2022-11-04T06:21:07;21.10;;;15.65;;
22040;SDS011;11184;52.444;13.578;2022-11-04T06:23:53;24.63;;;15.38;;
22040;SDS011;11184;52.444;13.578;2022-11-04T06:26:40;20.45;;;13.93;;
22040;SDS011;11184;52.444;13.578;2022-11-04T06:29:25;16.70;;;13.45;;
22040;SDS011;11184;52.444;13.578;2022-11-04T06:32:11;19.48;;;14.52;;
22040;SDS011;11184;52.444;13.578;2022-11-04T06:34:56;16.83;;;14.65;;
22040;SDS011;11184;52.444;13.578;2022-11-04T06:37:41;22.23;;;15.48;;
22040;SDS011;11184;52.444;13.578;2022-11-04T06:40:26;17.20;;;15.27;;
22040;SDS011;11184;52.444;13.578;2022-11-04T06:43:10;19.05;;;14.82;;
22040;SDS011;11184;52.444;13.578;2022-11-04T06:48:39;16.13;;;14.50;;
22040;SDS011;11184;52.444;13.578;2022-11-04T06:51:24;17.75;;;14.90;;
22040;SDS011;11184;52.444;13.578;2022-11-04T06:54:09;14.95;;;13.50;;
22040;SDS011;11184;52.444;13.578;2022-11-04T06:56:53;19.25;;;14.38;;
22040;SDS011;11184;52.444;13.578;2022-11-04T06:59:38;28.80;;;15.50;;
22040;SDS011;11184;52.444;13.578;2022-11-04T07:02:23;19.50;;;14.55;;
22040;SDS011;11184;52.444;13.578;2022-11-04T07:05:07;22.17;;;16.90;;
22040;SDS011;11184;52.444;13.578;2022-11-04T07:07:52;22.42;;;16.75;;
22040;SDS011;11184;52.444;13.578;2022-11-04T07:10:37;21.95;;;15.90;;
22040;SDS011;11184;52.444;13.578;2022-11-04T07:13:21;21.02;;;16.27;;
22040;SDS011;11184;52.444;13.578;2022-11-04T07:16:07;19.75;;;15.85;;
22040;SDS011;11184;52.444;13.578;2022-11-04T07:18:55;24.40;;;16.33;;
22040;SDS011;11184;52.444;13.578;2022-11-04T07:21:40;30.67;;;17.45;;
22040;SDS011;11184;52.444;13.578;2022-11-04T07:24:24;18.88;;;16.55;;
22040;SDS011;11184;52.444;13.578;2022-11-04T07:27:09;17.20;;;15.27;;
22040;SDS011;11184;52.444;13.578;2022-11-04T07:29:53;17.70;;;15.55;;
22040;SDS011;11184;52.444;13.578;2022-11-04T07:32:38;21.63;;;16.45;;
22040;SDS011;11184;52.444;13.578;2022-11-04T07:35:23;18.50;;;16.48;;
22040;SDS011;11184;52.444;13.578;2022-11-04T07:38:08;24.42;;;17.05;;
22040;SDS011;11184;52.444;13.578;2022-11-04T07:40:54;23.25;;;17.42;;
22040;SDS011;11184;52.444;13.578;2022-11-04T07:43:38;21.55;;;16.98;;
22040;SDS011;11184;52.444;13.578;2022-11-04T07:46:23;19.50;;;17.55;;
22040;SDS011;11184;52.444;13.578;2022-11-04T07:49:08;24.63;;;19.50;;
22040;SDS011;11184;52.444;13.578;2022-11-04T07:51:52;20.90;;;17.80;;
22040;SDS011;11184;52.444;13.578;2022-11-04T07:54:37;24.30;;;18.83;;
22040;SDS011;11184;52.444;13.578;2022-11-04T07:57:22;20.80;;;17.52;;
22040;SDS011;11184;52.444;13.578;2022-11-04T08:00:06;28.30;;;19.40;;
22040;SDS011;11184;52.444;13.578;2022-11-04T08:02:52;28.85;;;20.73;;
22040;SDS011;11184;52.444;13.578;2022-11-04T08:05:36;25.50;;;18.40;;
22040;SDS011;11184;52.444;13.578;2022-11-04T08:08:21;18.17;;;15.85;;
22040;SDS011;11184;52.444;13.578;2022-11-04T08:11:07;20.88;;;16.73;;
22040;SDS011;11184;52.444;13.578;2022-11-04T08:13:52;21.33;;;17.60;;
22040;SDS011;11184;52.444;13.578;2022-11-04T08:16:37;18.98;;;16.98;;
22040;SDS011;11184;52.444;13.578;2022-11-04T08:19:22;23.23;;;16.42;;
22040;SDS011;11184;52.444;13.578;2022-11-04T08:22:07;23.92;;;17.10;;
22040;SDS011;11184;52.444;13.578;2022-11-04T08:24:52;19.55;;;16.98;;
22040;SDS011;11184;52.444;13.578;2022-11-04T08:27:37;25.33;;;18.75;;
22040;SDS011;11184;52.444;13.578;2022-11-04T08:30:21;21.75;;;18.40;;
22040;SDS011;11184;52.444;13.578;2022-11-04T08:33:06;19.15;;;14.63;;
22040;SDS011;11184;52.444;13.578;2022-11-04T08:35:51;20.17;;;16.92;;
22040;SDS011;11184;52.444;13.578;2022-11-04T08:38:36;17.55;;;15.02;;
22040;SDS011;11184;52.444;13.578;2022-11-04T08:41:22;20.60;;;14.38;;
22040;SDS011;11184;52.444;13.578;2022-11-04T08:44:09;15.90;;;14.25;;
22040;SDS011;11184;52.444;13.578;2022-11-04T08:46:54;18.05;;;15.45;;
22040;SDS011;11184;52.444;13.578;2022-11-04T08:49:38;19.85;;;15.13;;
22040;SDS011;11184;52.444;13.578;2022-11-04T08:52:24;20.20;;;15.27;;
22040;SDS011;11184;52.444;13.578;2022-11-04T08:55:09;17.65;;;15.65;;
22040;SDS011;11184;52.444;13.578;2022-11-04T08:57:53;20.70;;;15.80;;
22040;SDS011;11184;52.444;13.578;2022-11-04T09:00:38;17.50;;;15.63;;
22040;SDS011;11184;52.444;13.578;2022-11-04T09:03:23;17.17;;;15.35;;
22040;SDS011;11184;52.444;13.578;2022-11-04T09:06:09;19.95;;;14.88;;
22040;SDS011;11184;52.444;13.578;2022-11-04T09:08:54;20.92;;;15.40;;
22040;SDS011;11184;52.444;13.578;2022-11-04T09:11:41;15.52;;;14.02;;
22040;SDS011;11184;52.444;13.578;2022-11-04T09:14:26;17.73;;;15.88;;
22040;SDS011;11184;52.444;13.578;2022-11-04T09:17:10;17.48;;;15.73;;
22040;SDS011;11184;52.444;13.578;2022-11-04T09:19:55;19.70;;;14.55;;
22040;SDS011;11184;52.444;13.578;2022-11-04T09:22:40;20.23;;;14.25;;
22040;SDS011;11184;52.444;13.578;2022-11-04T09:25:24;18.75;;;13.88;;
22040;SDS011;11184;52.444;13.578;2022-11-04T09:28:09;15.20;;;13.35;;
22040;SDS011;11184;52.444;13.578;2022-11-04T09:30:54;18.38;;;13.90;;
22040;SDS011;11184;52.444;13.578;2022-11-04T09:33:38;16.83;;;15.18;;
22040;SDS011;11184;52.444;13.578;2022-11-04T09:36:23;17.42;;;14.85;;
22040;SDS011;11184;52.444;13.578;2022-11-04T09:39:08;13.27;;;12.00;;
22040;SDS011;11184;52.444;13.578;2022-11-04T09:41:55;13.32;;;11.93;;
22040;SDS011;11184;52.444;13.578;2022-11-04T09:44:47;15.57;;;12.40;;
22040;SDS011;11184;52.444;13.578;2022-11-04T09:47:32;12.23;;;11.13;;
22040;SDS011;11184;52.444;13.578;2022-11-04T09:50:18;16.67;;;11.35;;
22040;SDS011;11184;52.444;13.578;2022-11-04T09:53:06;11.18;;;8.95;;
22040;SDS011;11184;52.444;13.578;2022-11-04T09:55:56;10.10;;;8.95;;
22040;SDS011;11184;52.444;13.578;2022-11-04T09:58:41;9.35;;;8.45;;
22040;SDS011;11184;52.444;13.578;2022-11-04T10:01:27;10.95;;;8.05;;
22040;SDS011;11184;52.444;13.578;2022-11-04T10:10:16;8.25;;;6.07;;
22040;SDS011;11184;52.444;13.578;2022-11-04T10:16:02;6.80;;;6.22;;
22040;SDS011;11184;52.444;13.578;2022-11-04T10:24:33;7.70;;;6.97;;
22040;SDS011;11184;52.444;13.578;2022-11-04T10:27:24;8.85;;;7.95;;
22040;SDS011;11184;52.444;13.578;2022-11-04T10:30:15;8.18;;;7.43;;
22040;SDS011;11184;52.444;13.578;2022-11-04T10:33:16;9.30;;;7.57;;
22040;SDS011;11184;52.444;13.578;2022-11-04T10:36:08;9.77;;;7.43;;
22040;SDS011;11184;52.444;13.578;2022-11-04T10:38:54;9.35;;;8.45;;
22040;SDS011;11184;52.444;13.578;2022-11-04T10:41:39;8.50;;;7.72;;
22040;SDS011;11184;52.444;13.578;2022-11-04T10:44:25;14.52;;;8.77;;
22040;SDS011;11184;52.444;13.578;2022-11-04T10:47:17;9.55;;;8.70;;
22040;SDS011;11184;52.444;13.578;2022-11-04T10:53:27;9.30;;;8.35;;
22040;SDS011;11184;52.444;13.578;2022-11-04T10:56:21;10.68;;;8.70;;
22040;SDS011;11184;52.444;13.578;2022-11-04T10:59:21;9.75;;;8.85;;
22040;SDS011;11184;52.444;13.578;2022-11-04T11:02:07;9.52;;;8.70;;
22040;SDS011;11184;52.444;13.578;2022-11-04T11:04:52;13.00;;;10.82;;
22040;SDS011;11184;52.444;13.578;2022-11-04T11:07:55;10.13;;;9.20;;
22040;SDS011;11184;52.444;13.578;2022-11-04T11:10:40;9.80;;;8.77;;
22040;SDS011;11184;52.444;13.578;2022-11-04T11:13:35;11.02;;;9.95;;
22040;SDS011;11184;52.444;13.578;2022-11-04T11:16:24;11.65;;;9.68;;
22040;SDS011;11184;52.444;13.578;2022-11-04T11:21:55;10.88;;;9.85;;
22040;SDS011;11184;52.444;13.578;2022-11-04T11:24:40;13.18;;;10.32;;
22040;SDS011;11184;52.444;13.578;2022-11-04T11:27:24;11.10;;;10.02;;
22040;SDS011;11184;52.444;13.578;2022-11-04T11:30:17;11.07;;;9.38;;
22040;SDS011;11184;52.444;13.578;2022-11-04T11:33:03;9.93;;;9.10;;
22040;SDS011;11184;52.444;13.578;2022-11-04T11:35:50;10.20;;;9.30;;
22040;SDS011;11184;52.444;13.578;2022-11-04T11:38:35;9.60;;;8.80;;
22040;SDS011;11184;52.444;13.578;2022-11-04T11:41:21;10.27;;;9.20;;
22040;SDS011;11184;52.444;13.578;2022-11-04T11:44:28;9.75;;;8.95;;
22040;SDS011;11184;52.444;13.578;2022-11-04T11:47:21;10.48;;;9.50;;
22040;SDS011;11184;52.444;13.578;2022-11-04T11:50:24;12.65;;;11.32;;
22040;SDS011;11184;52.444;13.578;2022-11-04T11:53:18;13.60;;;12.23;;
22040;SDS011;11184;52.444;13.578;2022-11-04T11:59:27;12.25;;;11.05;;
22040;SDS011;11184;52.444;13.578;2022-11-04T12:05:11;9.85;;;9.02;;
22040;SDS011;11184;52.444;13.578;2022-11-04T12:08:04;11.55;;;10.70;;
22040;SDS011;11184;52.444;13.578;2022-11-04T12:10:53;13.15;;;11.80;;
22040;SDS011;11184;52.444;13.578;2022-11-04T12:13:48;12.88;;;11.77;;
22040;SDS011;11184;52.444;13.578;2022-11-04T12:19:32;15.88;;;14.07;;
22040;SDS011;11184;52.444;13.578;2022-11-04T12:22:44;14.82;;;12.07;;
22040;SDS011;11184;52.444;13.578;2022-11-04T12:25:27;13.43;;;12.20;;
22040;SDS011;11184;52.444;13.578;2022-11-04T12:28:38;12.02;;;10.95;;
22040;SDS011;11184;52.444;13.578;2022-11-04T12:31:34;13.88;;;12.55;;
22040;SDS011;11184;52.444;13.578;2022-11-04T12:34:35;11.85;;;10.75;;
22040;SDS011;11184;52.444;13.578;2022-11-04T12:40:19;13.00;;;12.00;;
22040;SDS011;11184;52.444;13.578;2022-11-04T12:43:07;14.00;;;12.18;;
22040;SDS011;11184;52.444;13.578;2022-11-04T12:45:58;14.85;;;13.30;;
22040;SDS011;11184;52.444;13.578;2022-11-04T12:52:07;14.18;;;12.45;;
22040;SDS011;11184;52.444;13.578;2022-11-04T13:00:47;13.85;;;12.60;;
22040;SDS011;11184;52.444;13.578;2022-11-04T13:03:35;15.95;;;14.45;;
22040;SDS011;11184;52.444;13.578;2022-11-04T13:06:30;16.77;;;12.63;;
22040;SDS011;11184;52.444;13.578;2022-11-04T13:09:36;15.27;;;14.05;;
22040;SDS011;11184;52.444;13.578;2022-11-04T13:12:30;15.18;;;13.98;;
22040;SDS011;11184;52.444;13.578;2022-11-04T13:15:23;14.45;;;13.02;;
22040;SDS011;11184;52.444;13.578;2022-11-04T13:18:09;14.05;;;12.93;;
22040;SDS011;11184;52.444;13.578;2022-11-04T13:20:58;16.60;;;14.68;;
22040;SDS011;11184;52.444;13.578;2022-11-04T13:23:45;16.08;;;14.13;;
22040;SDS011;11184;52.444;13.578;2022-11-04T13:26:32;15.77;;;14.43;;
22040;SDS011;11184;52.444;13.578;2022-11-04T13:29:17;15.65;;;14.35;;
22040;SDS011;11184;52.444;13.578;2022-11-04T13:32:06;17.88;;;15.35;;
22040;SDS011;11184;52.444;13.578;2022-11-04T13:37:46;16.60;;;15.20;;
22040;SDS011;11184;52.444;13.578;2022-11-04T13:40:34;17.02;;;15.40;;
22040;SDS011;11184;52.444;13.578;2022-11-04T13:43:34;18.95;;;17.05;;
22040;SDS011;11184;52.444;13.578;2022-11-04T13:46:25;16.50;;;14.95;;
22040;SDS011;11184;52.444;13.578;2022-11-04T13:55:02;18.08;;;16.17;;
22040;SDS011;11184;52.444;13.578;2022-11-04T13:57:50;18.42;;;16.52;;
22040;SDS011;11184;52.444;13.578;2022-11-04T14:00:35;17.20;;;15.10;;
22040;SDS011;11184;52.444;13.578;2022-11-04T14:06:10;17.73;;;15.90;;
22040;SDS011;11184;52.444;13.578;2022-11-04T14:12:23;14.82;;;13.52;;
22040;SDS011;11184;52.444;13.578;2022-11-04T14:15:08;18.05;;;16.10;;
22040;SDS011;11184;52.444;13.578;2022-11-04T14:20:38;17.33;;;15.63;;
22040;SDS011;11184;52.444;13.578;2022-11-04T14:23:52;16.02;;;14.50;;
22040;SDS011;11184;52.444;13.578;2022-11-04T14:26:45;17.33;;;15.60;;
22040;SDS011;11184;52.444;13.578;2022-11-04T14:29:31;17.88;;;15.93;;
22040;SDS011;11184;52.444;13.578;2022-11-04T14:32:24;17.08;;;15.45;;
22040;SDS011;11184;52.444;13.578;2022-11-04T14:35:15;20.35;;;17.20;;
22040;SDS011;11184;52.444;13.578;2022-11-04T14:38:04;17.88;;;16.02;;
22040;SDS011;11184;52.444;13.578;2022-11-04T14:40:50;17.25;;;15.50;;
22040;SDS011;11184;52.444;13.578;2022-11-04T14:43:36;16.35;;;14.90;;
22040;SDS011;11184;52.444;13.578;2022-11-04T14:46:24;18.52;;;16.80;;
22040;SDS011;11184;52.444;13.578;2022-11-04T14:55:10;19.98;;;17.50;;
22040;SDS011;11184;52.444;13.578;2022-11-04T15:01:00;18.42;;;16.33;;
22040;SDS011;11184;52.444;13.578;2022-11-04T15:03:45;20.13;;;18.05;;
22040;SDS011;11184;52.444;13.578;2022-11-04T15:06:30;20.13;;;18.20;;
22040;SDS011;11184;52.444;13.578;2022-11-04T15:09:19;21.42;;;18.45;;
22040;SDS011;11184;52.444;13.578;2022-11-04T15:15:44;19.67;;;17.85;;
22040;SDS011;11184;52.444;13.578;2022-11-04T15:18:24;20.40;;;18.02;;
22040;SDS011;11184;52.444;13.578;2022-11-04T15:21:09;20.35;;;18.45;;
22040;SDS011;11184;52.444;13.578;2022-11-04T15:23:54;18.92;;;17.17;;
22040;SDS011;11184;52.444;13.578;2022-11-04T15:26:39;19.27;;;17.45;;
22040;SDS011;11184;52.444;13.578;2022-11-04T15:29:24;19.60;;;17.70;;
22040;SDS011;11184;52.444;13.578;2022-11-04T15:32:14;19.52;;;17.77;;
22040;SDS011;11184;52.444;13.578;2022-11-04T15:35:00;24.80;;;18.17;;
22040;SDS011;11184;52.444;13.578;2022-11-04T15:37:45;21.98;;;18.17;;
22040;SDS011;11184;52.444;13.578;2022-11-04T15:40:31;22.80;;;20.48;;
22040;SDS011;11184;52.444;13.578;2022-11-04T15:43:18;22.45;;;20.20;;
22040;SDS011;11184;52.444;13.578;2022-11-04T15:46:03;22.02;;;17.55;;
22040;SDS011;11184;52.444;13.578;2022-11-04T15:49:01;22.35;;;19.88;;
22040;SDS011;11184;52.444;13.578;2022-11-04T15:51:47;21.42;;;19.40;;
22040;SDS011;11184;52.444;13.578;2022-11-04T15:54:35;22.25;;;19.63;;
22040;SDS011;11184;52.444;13.578;2022-11-04T15:57:22;22.50;;;18.35;;
22040;SDS011;11184;52.444;13.578;2022-11-04T16:00:18;20.42;;;18.55;;
22040;SDS011;11184;52.444;13.578;2022-11-04T16:03:04;21.35;;;18.17;;
22040;SDS011;11184;52.444;13.578;2022-11-04T16:06:03;19.17;;;17.20;;
22040;SDS011;11184;52.444;13.578;2022-11-04T16:08:58;22.83;;;20.65;;
22040;SDS011;11184;52.444;13.578;2022-11-04T16:12:01;21.67;;;19.42;;
22040;SDS011;11184;52.444;13.578;2022-11-04T16:14:48;19.63;;;17.83;;
22040;SDS011;11184;52.444;13.578;2022-11-04T16:17:32;20.77;;;18.40;;
22040;SDS011;11184;52.444;13.578;2022-11-04T16:20:17;21.02;;;19.10;;
22040;SDS011;11184;52.444;13.578;2022-11-04T16:23:02;19.70;;;17.70;;
22040;SDS011;11184;52.444;13.578;2022-11-04T16:25:53;22.30;;;18.20;;
22040;SDS011;11184;52.444;13.578;2022-11-04T16:28:39;25.05;;;18.13;;
22040;SDS011;11184;52.444;13.578;2022-11-04T16:31:31;20.08;;;18.23;;
22040;SDS011;11184;52.444;13.578;2022-11-04T16:34:16;18.63;;;16.92;;
22040;SDS011;11184;52.444;13.578;2022-11-04T16:37:01;19.17;;;17.30;;
22040;SDS011;11184;52.444;13.578;2022-11-04T16:39:46;18.48;;;16.77;;
22040;SDS011;11184;52.444;13.578;2022-11-04T16:42:32;17.38;;;15.70;;
22040;SDS011;11184;52.444;13.578;2022-11-04T16:45:32;22.52;;;17.40;;
22040;SDS011;11184;52.444;13.578;2022-11-04T16:48:18;19.73;;;17.88;;
22040;SDS011;11184;52.444;13.578;2022-11-04T16:51:03;17.75;;;16.05;;
22040;SDS011;11184;52.444;13.578;2022-11-04T16:53:51;16.58;;;14.93;;
22040;SDS011;11184;52.444;13.578;2022-11-04T16:56:36;17.48;;;15.75;;
22040;SDS011;11184;52.444;13.578;2022-11-04T16:59:21;18.08;;;16.52;;
22040;SDS011;11184;52.444;13.578;2022-11-04T17:02:21;18.83;;;17.13;;
22040;SDS011;11184;52.444;13.578;2022-11-04T17:05:07;20.63;;;18.77;;
22040;SDS011;11184;52.444;13.578;2022-11-04T17:07:53;18.50;;;16.90;;
22040;SDS011;11184;52.444;13.578;2022-11-04T17:10:37;19.00;;;17.10;;
22040;SDS011;11184;52.444;13.578;2022-11-04T17:13:22;17.83;;;16.23;;
22040;SDS011;11184;52.444;13.578;2022-11-04T17:16:09;17.65;;;15.95;;
22040;SDS011;11184;52.444;13.578;2022-11-04T17:18:54;17.33;;;15.70;;
22040;SDS011;11184;52.444;13.578;2022-11-04T17:21:38;19.48;;;17.50;;
22040;SDS011;11184;52.444;13.578;2022-11-04T17:24:23;19.33;;;17.35;;
22040;SDS011;11184;52.444;13.578;2022-11-04T17:27:08;19.67;;;17.58;;
22040;SDS011;11184;52.444;13.578;2022-11-04T17:29:53;15.85;;;14.30;;
22040;SDS011;11184;52.444;13.578;2022-11-04T17:32:39;18.17;;;16.38;;
22040;SDS011;11184;52.444;13.578;2022-11-04T17:35:24;18.23;;;16.35;;